createdAt,value
2018-10-17T00:00:14.790Z,9.73
2018-10-17T00:02:43.542Z,9.73
2018-10-17T00:05:12.128Z,9.71
2018-10-17T00:07:40.510Z,9.71
2018-10-17T00:10:10.206Z,9.72
2018-10-17T00:12:39.033Z,9.75
2018-10-17T00:15:08.189Z,9.74
2018-10-17T00:17:36.739Z,9.72
2018-10-17T00:20:05.887Z,9.73
2018-10-17T00:22:34.469Z,9.71
2018-10-17T00:25:02.986Z,9.74
2018-10-17T00:27:31.537Z,9.67
2018-10-17T00:30:00.050Z,9.64
2018-10-17T00:32:28.537Z,9.57
2018-10-17T00:34:56.997Z,9.51
2018-10-17T00:37:25.525Z,9.47
2018-10-17T00:39:53.976Z,9.39
2018-10-17T00:42:22.646Z,9.34
2018-10-17T00:44:51.089Z,9.31
2018-10-17T00:47:19.544Z,9.25
2018-10-17T00:49:48.023Z,9.17
2018-10-17T00:52:16.453Z,9.10
2018-10-17T00:54:44.862Z,9.06
2018-10-17T00:57:13.431Z,9.05
2018-10-17T00:59:41.809Z,9.04
2018-10-17T01:02:10.235Z,8.98
2018-10-17T01:04:38.724Z,8.95
2018-10-17T01:07:07.198Z,8.96
2018-10-17T01:09:35.737Z,8.93
2018-10-17T01:12:04.221Z,8.87
2018-10-17T01:14:32.797Z,8.86
2018-10-17T01:17:01.256Z,8.79
2018-10-17T01:19:29.702Z,8.73
2018-10-17T01:21:58.207Z,8.72
2018-10-17T01:24:26.621Z,8.72
2018-10-17T01:26:55.050Z,8.64
2018-10-17T01:29:23.449Z,8.59
2018-10-17T01:31:51.904Z,8.55
2018-10-17T01:34:20.525Z,8.52
2018-10-17T01:36:48.949Z,8.57
2018-10-17T01:39:17.361Z,8.56
2018-10-17T01:41:45.797Z,8.53
2018-10-17T01:44:14.245Z,8.54
2018-10-17T01:46:42.742Z,8.52
2018-10-17T01:49:11.188Z,8.52
2018-10-17T01:51:39.633Z,8.54
2018-10-17T01:54:08.073Z,8.52
2018-10-17T01:56:36.649Z,8.55
2018-10-17T01:59:05.466Z,8.49
2018-10-17T02:01:33.940Z,8.40
2018-10-17T02:04:02.369Z,8.37
2018-10-17T02:06:30.927Z,8.39
2018-10-17T02:08:59.394Z,8.34
2018-10-17T02:11:27.933Z,8.32
2018-10-17T02:13:56.351Z,8.24
2018-10-17T02:16:24.917Z,8.17
2018-10-17T02:18:53.341Z,8.14
2018-10-17T02:21:21.950Z,8.10
2018-10-17T02:23:50.374Z,8.10
2018-10-17T02:26:18.874Z,8.07
2018-10-17T02:28:47.301Z,8.06
2018-10-17T02:31:15.820Z,8.06
2018-10-17T02:33:44.226Z,8.05
2018-10-17T02:36:12.678Z,8.03
2018-10-17T02:38:41.142Z,8.01
2018-10-17T02:41:09.640Z,7.99
2018-10-17T02:43:38.104Z,7.96
2018-10-17T02:46:07.048Z,7.97
2018-10-17T02:48:35.598Z,7.91
2018-10-17T02:51:04.037Z,7.87
2018-10-17T02:53:32.554Z,7.79
2018-10-17T02:56:01.097Z,7.80
2018-10-17T02:58:29.521Z,7.78
2018-10-17T03:00:58.113Z,7.74
2018-10-17T03:03:26.618Z,7.74
2018-10-17T03:05:55.185Z,7.71
2018-10-17T03:08:23.853Z,7.66
2018-10-17T03:10:52.355Z,7.62
2018-10-17T03:13:20.953Z,7.55
2018-10-17T03:15:49.410Z,7.54
2018-10-17T03:18:17.917Z,7.58
2018-10-17T03:20:46.446Z,7.57
2018-10-17T03:23:14.919Z,7.57
2018-10-17T03:25:43.487Z,7.68
2018-10-17T03:28:11.952Z,7.69
2018-10-17T03:30:40.453Z,7.65
2018-10-17T03:33:08.970Z,7.59
2018-10-17T03:35:37.508Z,7.55
2018-10-17T03:38:06.111Z,7.51
2018-10-17T03:40:34.614Z,7.45
2018-10-17T03:43:03.555Z,7.41
2018-10-17T03:45:32.163Z,7.37
2018-10-17T03:48:00.709Z,7.33
2018-10-17T03:50:29.171Z,7.30
2018-10-17T03:52:57.613Z,7.29
2018-10-17T03:55:26.066Z,7.28
2018-10-17T03:57:54.568Z,7.32
2018-10-17T04:00:23.052Z,7.34
2018-10-17T04:02:51.558Z,7.33
2018-10-17T04:05:20.176Z,7.33
2018-10-17T04:07:48.581Z,7.31
2018-10-17T04:10:17.047Z,7.31
2018-10-17T04:12:45.505Z,7.35
2018-10-17T04:15:13.964Z,7.36
2018-10-17T04:17:42.414Z,7.36
2018-10-17T04:20:10.875Z,7.29
2018-10-17T04:22:43.659Z,7.31
2018-10-17T04:25:12.159Z,7.28
2018-10-17T04:27:40.661Z,7.32
2018-10-17T04:30:09.206Z,7.37
2018-10-17T04:32:37.677Z,7.37
2018-10-17T04:35:06.398Z,7.29
2018-10-17T04:37:34.895Z,7.25
2018-10-17T04:40:03.385Z,7.23
2018-10-17T04:42:31.836Z,7.19
2018-10-17T04:45:00.306Z,7.18
2018-10-17T04:47:28.799Z,7.20
2018-10-17T04:49:57.235Z,7.23
2018-10-17T04:52:25.738Z,7.19
2018-10-17T04:54:54.281Z,7.20
2018-10-17T04:57:22.913Z,7.18
2018-10-17T04:59:51.350Z,7.22
2018-10-17T05:02:19.904Z,7.20
2018-10-17T05:04:48.346Z,7.23
2018-10-17T05:07:16.915Z,7.22
2018-10-17T05:09:45.325Z,7.20
2018-10-17T05:12:13.805Z,7.18
2018-10-17T05:14:42.378Z,7.14
2018-10-17T05:17:10.891Z,7.17
2018-10-17T05:19:39.338Z,7.13
2018-10-17T05:22:08.011Z,7.15
2018-10-17T05:24:36.485Z,7.10
2018-10-17T05:27:04.990Z,7.09
2018-10-17T05:29:33.454Z,7.09
2018-10-17T05:32:01.925Z,7.09
2018-10-17T05:34:30.369Z,7.09
2018-10-17T05:36:58.861Z,7.06
2018-10-17T05:39:27.385Z,7.06
2018-10-17T05:41:55.911Z,7.04
2018-10-17T05:44:24.454Z,7.06
2018-10-17T05:46:52.901Z,7.07
2018-10-17T05:49:21.391Z,7.05
2018-10-17T05:51:49.933Z,7.05
2018-10-17T05:54:18.382Z,7.06
2018-10-17T05:56:46.841Z,7.09
2018-10-17T05:59:15.445Z,7.11
2018-10-17T06:01:43.934Z,7.10
2018-10-17T06:04:12.302Z,7.15
2018-10-17T06:06:40.762Z,7.19
2018-10-17T06:09:10.962Z,7.20
2018-10-17T06:11:39.410Z,7.28
2018-10-17T06:14:09.329Z,7.34
2018-10-17T06:16:37.837Z,7.41
2018-10-17T06:19:06.351Z,7.50
2018-10-17T06:21:34.859Z,7.58
2018-10-17T06:24:03.380Z,7.71
2018-10-17T06:26:31.849Z,7.82
2018-10-17T06:29:00.319Z,7.96
2018-10-17T06:31:29.107Z,8.15
2018-10-17T06:33:57.743Z,8.25
2018-10-17T06:36:26.354Z,8.35
2018-10-17T06:38:54.797Z,8.44
2018-10-17T06:41:23.240Z,8.51
2018-10-17T06:43:51.741Z,8.59
2018-10-17T06:46:20.222Z,8.65
2018-10-17T06:48:48.644Z,8.71
2018-10-17T06:51:17.162Z,8.81
2018-10-17T06:53:45.606Z,8.92
2018-10-17T06:56:14.049Z,9.12
2018-10-17T06:58:42.583Z,9.24
2018-10-17T07:01:11.074Z,9.31
2018-10-17T07:03:39.449Z,9.34
2018-10-17T07:06:07.870Z,9.40
2018-10-17T07:08:36.510Z,9.52
2018-10-17T07:11:05.381Z,9.59
2018-10-17T07:13:33.808Z,9.71
2018-10-17T07:16:02.227Z,9.78
2018-10-17T07:18:30.686Z,9.81
2018-10-17T07:20:59.101Z,9.89
2018-10-17T07:23:27.617Z,9.93
2018-10-17T07:25:56.019Z,9.99
2018-10-17T07:28:24.573Z,10.10
2018-10-17T07:30:53.111Z,10.16
2018-10-17T07:33:21.724Z,10.19
2018-10-17T07:35:50.405Z,10.22
2018-10-17T07:38:18.769Z,10.28
2018-10-17T07:40:47.226Z,10.42
2018-10-17T07:43:15.626Z,10.56
2018-10-17T07:45:44.127Z,10.72
2018-10-17T07:48:12.688Z,10.87
2018-10-17T07:50:41.095Z,10.96
2018-10-17T07:53:09.563Z,11.08
2018-10-17T07:55:38.007Z,11.19
2018-10-17T07:58:06.787Z,11.30
2018-10-17T08:00:35.350Z,11.45
2018-10-17T08:03:03.771Z,11.57
2018-10-17T08:05:32.274Z,11.66
2018-10-17T08:08:00.726Z,11.76
2018-10-17T08:10:29.192Z,11.83
2018-10-17T08:12:57.678Z,11.89
2018-10-17T08:15:26.150Z,11.99
2018-10-17T08:17:54.580Z,12.08
2018-10-17T08:20:23.142Z,12.23
2018-10-17T08:22:51.552Z,12.33
2018-10-17T08:25:19.998Z,12.46
2018-10-17T08:27:48.418Z,12.54
2018-10-17T08:30:17.043Z,12.59
2018-10-17T08:32:45.343Z,12.62
2018-10-17T08:35:13.833Z,12.75
2018-10-17T08:37:42.643Z,12.92
2018-10-17T08:40:10.702Z,13.06
2018-10-17T08:42:39.182Z,13.21
2018-10-17T08:45:07.740Z,13.31
2018-10-17T08:47:36.189Z,13.45
2018-10-17T08:50:04.705Z,13.54
2018-10-17T08:52:33.182Z,13.66
2018-10-17T08:55:01.637Z,13.85
2018-10-17T08:57:30.053Z,13.98
2018-10-17T08:59:58.491Z,14.20
2018-10-17T09:02:26.899Z,14.36
2018-10-17T09:04:55.309Z,14.51
2018-10-17T09:07:23.741Z,14.78
2018-10-17T09:09:52.178Z,14.94
2018-10-17T09:12:20.881Z,15.18
2018-10-17T09:14:49.277Z,15.34
2018-10-17T09:17:17.720Z,15.48
2018-10-17T09:19:46.286Z,15.60
2018-10-17T09:22:15.033Z,15.77
2018-10-17T09:24:43.119Z,15.96
2018-10-17T09:27:11.568Z,16.09
2018-10-17T09:29:40.089Z,16.29
2018-10-17T09:32:08.551Z,16.43
2018-10-17T09:34:37.081Z,16.78
2018-10-17T09:37:05.652Z,16.98
2018-10-17T09:39:34.237Z,17.36
2018-10-17T09:42:02.736Z,17.99
2018-10-17T09:44:31.101Z,18.79
2018-10-17T09:46:59.541Z,19.41
2018-10-17T09:49:27.992Z,20.12
2018-10-17T09:51:56.540Z,20.38
2018-10-17T09:54:25.054Z,21.03
2018-10-17T09:56:53.494Z,21.71
2018-10-17T09:59:21.943Z,21.95
2018-10-17T10:01:52.076Z,22.28
2018-10-17T10:04:20.969Z,22.96
2018-10-17T10:06:49.625Z,23.14
2018-10-17T10:09:18.063Z,23.96
2018-10-17T10:11:46.517Z,24.05
2018-10-17T10:14:14.916Z,24.47
2018-10-17T10:16:43.378Z,25.02
2018-10-17T10:19:11.826Z,24.74
2018-10-17T10:21:40.244Z,24.95
2018-10-17T10:24:08.775Z,25.66
2018-10-17T10:26:37.201Z,25.68
2018-10-17T10:29:05.839Z,25.57
2018-10-17T10:31:34.353Z,25.62
2018-10-17T10:34:03.034Z,25.74
2018-10-17T10:36:31.472Z,25.28
2018-10-17T10:38:59.902Z,25.73
2018-10-17T10:41:28.314Z,26.35
2018-10-17T10:43:56.757Z,26.97
2018-10-17T10:46:25.315Z,27.43
2018-10-17T10:48:53.785Z,27.57
2018-10-17T10:51:22.287Z,28.56
2018-10-17T10:53:50.845Z,28.44
2018-10-17T10:56:19.353Z,28.89
2018-10-17T10:58:47.821Z,29.33
2018-10-17T11:01:16.242Z,29.49
2018-10-17T11:03:44.759Z,29.71
2018-10-17T11:06:13.229Z,29.98
2018-10-17T11:08:41.661Z,31.17
2018-10-17T11:11:10.182Z,31.01
2018-10-17T11:13:38.626Z,31.44
2018-10-17T11:16:07.085Z,31.10
2018-10-17T11:18:35.573Z,30.55
2018-10-17T11:21:04.054Z,31.23
2018-10-17T11:23:32.522Z,31.18
2018-10-17T11:26:00.957Z,31.70
2018-10-17T11:28:29.401Z,32.33
2018-10-17T11:30:57.816Z,32.67
2018-10-17T11:33:26.266Z,32.35
2018-10-17T11:35:54.824Z,33.15
2018-10-17T11:38:23.603Z,33.14
2018-10-17T11:40:52.090Z,33.18
2018-10-17T11:43:20.626Z,33.93
2018-10-17T11:45:49.050Z,34.15
2018-10-17T11:48:17.697Z,33.22
2018-10-17T11:50:46.124Z,33.07
2018-10-17T11:53:14.774Z,33.96
2018-10-17T11:55:43.109Z,33.48
2018-10-17T11:58:11.593Z,33.25
2018-10-17T12:00:40.040Z,33.14
2018-10-17T12:03:08.566Z,34.67
2018-10-17T12:05:37.185Z,35.27
2018-10-17T12:08:05.611Z,35.52
2018-10-17T12:10:34.054Z,35.35
2018-10-17T12:13:02.590Z,35.08
2018-10-17T12:15:31.074Z,35.59
2018-10-17T12:17:59.657Z,34.54
2018-10-17T12:20:28.078Z,33.91
2018-10-17T12:22:56.505Z,34.83
2018-10-17T12:25:24.972Z,35.18
2018-10-17T12:27:53.467Z,34.63
2018-10-17T12:30:22.087Z,35.28
2018-10-17T12:32:50.525Z,35.60
2018-10-17T12:35:19.049Z,36.18
2018-10-17T12:37:47.458Z,36.29
2018-10-17T12:40:15.997Z,37.87
2018-10-17T12:42:44.371Z,38.23
2018-10-17T12:45:12.916Z,37.64
2018-10-17T12:47:41.344Z,37.44
2018-10-17T12:50:10.149Z,37.87
2018-10-17T12:52:38.604Z,37.98
2018-10-17T12:55:08.060Z,37.20
2018-10-17T12:57:36.539Z,37.36
2018-10-17T13:00:05.665Z,38.00
2018-10-17T13:02:34.110Z,39.34
2018-10-17T13:05:02.542Z,38.98
2018-10-17T13:07:31.040Z,40.10
2018-10-17T13:09:59.454Z,40.04
2018-10-17T13:12:27.873Z,40.49
2018-10-17T13:14:56.294Z,40.61
2018-10-17T13:17:24.894Z,40.57
2018-10-17T13:19:53.298Z,39.12
2018-10-17T13:22:21.724Z,38.55
2018-10-17T13:24:50.217Z,39.39
2018-10-17T13:27:18.691Z,39.78
2018-10-17T13:29:47.106Z,39.36
2018-10-17T13:32:15.588Z,39.28
2018-10-17T13:34:44.020Z,40.23
2018-10-17T13:37:12.553Z,38.95
2018-10-17T13:39:40.923Z,37.41
2018-10-17T13:42:09.374Z,36.74
2018-10-17T13:44:37.781Z,37.60
2018-10-17T13:47:07.038Z,38.22
2018-10-17T13:49:35.968Z,38.52
2018-10-17T13:52:04.468Z,38.17
2018-10-17T13:54:32.969Z,36.39
2018-10-17T13:57:01.381Z,36.62
2018-10-17T13:59:29.875Z,37.37
2018-10-17T14:01:58.302Z,38.12
2018-10-17T14:04:26.745Z,37.41
2018-10-17T14:06:55.197Z,37.21
2018-10-17T14:09:23.746Z,36.04
2018-10-17T14:11:52.264Z,35.87
2018-10-17T14:14:20.771Z,35.84
2018-10-17T14:16:49.181Z,35.09
2018-10-17T14:19:17.690Z,35.11
2018-10-17T14:21:46.089Z,35.80
2018-10-17T14:24:14.630Z,35.87
2018-10-17T14:26:42.987Z,35.29
2018-10-17T14:29:11.441Z,35.20
2018-10-17T14:31:39.868Z,36.87
2018-10-17T14:34:08.287Z,37.14
2018-10-17T14:36:36.772Z,37.06
2018-10-17T14:39:08.983Z,36.75
2018-10-17T14:41:37.298Z,36.69
2018-10-17T14:44:05.840Z,35.42
2018-10-17T14:46:34.312Z,33.95
2018-10-17T14:49:03.057Z,33.81
2018-10-17T14:51:31.685Z,34.37
2018-10-17T14:54:00.218Z,33.59
2018-10-17T14:56:28.790Z,32.74
2018-10-17T14:58:57.288Z,31.72
2018-10-17T15:01:25.818Z,30.84
2018-10-17T15:03:54.296Z,30.69
2018-10-17T15:06:22.801Z,31.14
2018-10-17T15:08:51.515Z,31.12
2018-10-17T15:11:20.191Z,31.17
2018-10-17T15:13:48.689Z,30.75
2018-10-17T15:16:17.157Z,30.78
2018-10-17T15:18:45.908Z,31.23
2018-10-17T15:21:14.440Z,31.02
2018-10-17T15:23:42.970Z,29.19
2018-10-17T15:26:11.426Z,27.39
2018-10-17T15:28:39.905Z,26.03
2018-10-17T15:31:08.486Z,25.13
2018-10-17T15:33:37.305Z,24.71
2018-10-17T15:36:06.045Z,24.09
2018-10-17T15:38:34.677Z,23.67
2018-10-17T15:41:03.269Z,23.44
2018-10-17T15:43:31.930Z,23.33
2018-10-17T15:46:00.550Z,23.11
2018-10-17T15:48:29.090Z,22.89
2018-10-17T15:50:57.634Z,22.59
2018-10-17T15:53:26.217Z,22.43
2018-10-17T15:55:54.735Z,22.23
2018-10-17T15:58:23.190Z,22.00
2018-10-17T16:00:51.900Z,21.84
2018-10-17T16:03:20.405Z,21.75
2018-10-17T16:05:49.045Z,21.62
2018-10-17T16:08:17.510Z,21.46
2018-10-17T16:10:45.889Z,21.32
2018-10-17T16:13:14.327Z,21.09
2018-10-17T16:15:42.823Z,20.86
2018-10-17T16:18:12.268Z,20.64
2018-10-17T16:20:40.929Z,20.51
2018-10-17T16:23:09.704Z,20.33
2018-10-17T16:25:38.113Z,20.13
2018-10-17T16:28:06.813Z,19.93
2018-10-17T16:30:35.257Z,19.71
2018-10-17T16:33:03.903Z,19.52
2018-10-17T16:35:32.337Z,19.33
2018-10-17T16:38:00.917Z,19.15
2018-10-17T16:40:29.329Z,18.94
2018-10-17T16:42:57.858Z,18.75
2018-10-17T16:45:26.333Z,18.68
2018-10-17T16:47:54.907Z,18.55
2018-10-17T16:50:23.620Z,18.48
2018-10-17T16:52:52.005Z,18.41
2018-10-17T16:55:20.570Z,18.32
2018-10-17T16:57:49.080Z,18.19
2018-10-17T17:00:17.680Z,18.05
2018-10-17T17:02:46.065Z,17.95
2018-10-17T17:05:15.260Z,17.88
2018-10-17T17:07:43.892Z,17.79
2018-10-17T17:10:13.557Z,17.66
2018-10-17T17:12:41.982Z,17.57
2018-10-17T17:15:10.944Z,17.47
2018-10-17T17:17:39.721Z,17.30
2018-10-17T17:20:10.160Z,17.12
2018-10-17T17:22:39.437Z,16.97
2018-10-17T17:25:08.023Z,16.85
2018-10-17T17:27:36.752Z,16.74
2018-10-17T17:30:09.691Z,16.64
2018-10-17T17:32:38.077Z,16.53
2018-10-17T17:35:06.725Z,16.48
2018-10-17T17:37:35.283Z,16.42
2018-10-17T17:40:03.805Z,16.38
2018-10-17T17:42:32.461Z,16.37
2018-10-17T17:45:00.858Z,16.39
2018-10-17T17:47:29.417Z,16.31
2018-10-17T17:49:57.805Z,16.19
2018-10-17T17:52:26.581Z,16.05
2018-10-17T17:54:54.974Z,15.95
2018-10-17T17:57:24.079Z,15.86
2018-10-17T17:59:52.465Z,15.80
2018-10-17T18:02:21.289Z,15.74
2018-10-17T18:04:49.697Z,15.67
2018-10-17T18:07:18.382Z,15.61
2018-10-17T18:09:46.798Z,15.52
2018-10-17T18:12:15.323Z,15.43
2018-10-17T18:14:43.873Z,15.43
2018-10-17T18:17:12.778Z,15.35
2018-10-17T18:19:41.502Z,15.28
2018-10-17T18:22:09.979Z,15.18
2018-10-17T18:24:38.369Z,15.11
2018-10-17T18:27:07.016Z,15.02
2018-10-17T18:29:35.460Z,14.94
2018-10-17T18:32:03.921Z,14.83
2018-10-17T18:34:33.280Z,14.73
2018-10-17T18:37:02.697Z,14.65
2018-10-17T18:39:31.138Z,14.56
2018-10-17T18:41:59.566Z,14.54
2018-10-17T18:44:28.138Z,14.50
2018-10-17T18:46:57.494Z,14.46
2018-10-17T18:49:26.041Z,14.38
2018-10-17T18:51:54.457Z,14.31
2018-10-17T18:54:23.230Z,14.25
2018-10-17T18:56:51.828Z,14.21
2018-10-17T18:59:20.209Z,14.14
2018-10-17T19:01:48.641Z,14.06
2018-10-17T19:04:17.065Z,13.96
2018-10-17T19:06:45.515Z,13.86
2018-10-17T19:09:14.881Z,13.81
2018-10-17T19:11:43.265Z,13.76
2018-10-17T19:14:11.689Z,13.75
2018-10-17T19:16:40.177Z,13.72
2018-10-17T19:19:08.615Z,13.71
2018-10-17T19:21:37.296Z,13.64
2018-10-17T19:24:06.297Z,13.63
2018-10-17T19:26:35.116Z,13.57
2018-10-17T19:29:03.646Z,13.53
2018-10-17T19:31:32.065Z,13.48
2018-10-17T19:34:00.490Z,13.44
2018-10-17T19:36:28.917Z,13.41
2018-10-17T19:38:57.363Z,13.33
2018-10-17T19:41:25.979Z,13.27
2018-10-17T19:43:54.434Z,13.19
2018-10-17T19:46:23.005Z,13.15
2018-10-17T19:48:51.634Z,13.12
2018-10-17T19:51:20.021Z,13.08
2018-10-17T19:53:48.437Z,13.04
2018-10-17T19:56:16.869Z,13.04
2018-10-17T19:58:45.308Z,12.98
2018-10-17T20:01:13.811Z,12.93
2018-10-17T20:03:42.267Z,12.88
2018-10-17T20:06:10.670Z,12.84
2018-10-17T20:08:39.106Z,12.82
2018-10-17T20:11:07.637Z,12.79
2018-10-17T20:13:36.116Z,12.75
2018-10-17T20:16:04.533Z,12.68
2018-10-17T20:18:32.986Z,12.61
2018-10-17T20:21:01.482Z,12.60
2018-10-17T20:23:29.965Z,12.57
2018-10-17T20:25:59.341Z,12.51
2018-10-17T20:28:27.817Z,12.47
2018-10-17T20:30:56.322Z,12.40
2018-10-17T20:33:24.969Z,12.37
2018-10-17T20:35:53.464Z,12.33
2018-10-17T20:38:22.020Z,12.31
2018-10-17T20:40:50.386Z,12.31
2018-10-17T20:43:18.817Z,12.32
2018-10-17T20:45:47.229Z,12.28
2018-10-17T20:48:15.688Z,12.23
2018-10-17T20:50:44.256Z,12.17
2018-10-17T20:53:12.717Z,12.12
2018-10-17T20:55:41.126Z,12.07
2018-10-17T20:58:09.661Z,12.01
2018-10-17T21:00:37.992Z,11.99
2018-10-17T21:03:06.550Z,11.98
2018-10-17T21:05:34.972Z,11.98
2018-10-17T21:08:03.525Z,11.98
2018-10-17T21:10:32.093Z,12.06
2018-10-17T21:13:00.725Z,12.18
2018-10-17T21:15:29.844Z,12.16
2018-10-17T21:17:58.289Z,12.19
2018-10-17T21:20:26.787Z,12.18
2018-10-17T21:22:55.205Z,12.14
2018-10-17T21:25:24.020Z,12.13
2018-10-17T21:27:52.445Z,12.08
2018-10-17T21:30:21.132Z,12.01
2018-10-17T21:32:49.555Z,11.91
2018-10-17T21:35:18.005Z,11.81
2018-10-17T21:37:46.652Z,11.71
2018-10-17T21:40:15.168Z,11.66
2018-10-17T21:42:43.601Z,11.59
2018-10-17T21:45:12.047Z,11.53
2018-10-17T21:47:40.496Z,11.51
2018-10-17T21:50:09.018Z,11.45
2018-10-17T21:52:37.397Z,11.39
2018-10-17T21:55:06.022Z,11.32
2018-10-17T21:57:34.500Z,11.24
2018-10-17T22:00:02.950Z,11.21
2018-10-17T22:02:31.436Z,11.18
2018-10-17T22:04:59.869Z,11.20
2018-10-17T22:07:28.325Z,11.24
2018-10-17T22:09:56.824Z,11.16
2018-10-17T22:12:25.385Z,11.12
2018-10-17T22:14:53.814Z,11.09
2018-10-17T22:17:28.801Z,11.07
2018-10-17T22:19:57.510Z,11.06
2018-10-17T22:22:26.570Z,11.05
2018-10-17T22:24:55.843Z,10.99
2018-10-17T22:27:24.371Z,10.95
2018-10-17T22:29:53.252Z,10.92
2018-10-17T22:32:21.730Z,10.87
2018-10-17T22:34:50.177Z,10.82
2018-10-17T22:37:18.634Z,10.81
2018-10-17T22:39:47.203Z,10.77
2018-10-17T22:42:15.613Z,10.78
2018-10-17T22:44:44.037Z,10.79
2018-10-17T22:47:12.433Z,10.75
2018-10-17T22:49:40.881Z,10.70
2018-10-17T22:52:09.285Z,10.72
2018-10-17T22:54:37.737Z,10.69
2018-10-17T22:57:06.201Z,10.65
2018-10-17T22:59:34.630Z,10.59
2018-10-17T23:02:03.170Z,10.53
2018-10-17T23:04:31.617Z,10.52
2018-10-17T23:07:00.121Z,10.50
2018-10-17T23:09:28.557Z,10.46
2018-10-17T23:11:56.953Z,10.45
2018-10-17T23:14:25.621Z,10.42
2018-10-17T23:16:54.048Z,10.39
2018-10-17T23:19:22.717Z,10.35
2018-10-17T23:21:51.189Z,10.30
2018-10-17T23:24:19.758Z,10.22
2018-10-17T23:26:48.201Z,10.22
2018-10-17T23:29:16.657Z,10.19
2018-10-17T23:31:45.065Z,10.14
2018-10-17T23:34:13.529Z,10.10
2018-10-17T23:36:41.926Z,10.07
2018-10-17T23:39:10.558Z,10.04
2018-10-17T23:41:39.721Z,10.04
2018-10-17T23:44:08.202Z,10.01
2018-10-17T23:46:36.644Z,10.00
2018-10-17T23:49:05.311Z,10.01
2018-10-17T23:51:33.822Z,9.98
2018-10-17T23:54:02.364Z,9.98
2018-10-17T23:56:30.799Z,10.01
2018-10-17T23:58:59.254Z,10.01
